Goldvein, Virginia
Current Conditions -  °F | °C
As of 7:15 PM on Sunday 23 Nov 2014 (Local Time) from KHWY Reporting Station
Light Rain Light Rain  
Wind Chill: 56°   Ceiling: 2400
Heat Index: 56°   Visibility: 10mi
Dew Point: 51°   Wind: 5mph
Humidity: 82%   Direction: 130°SE
Pressure: 30"   Gusts: NA
Location:  38.45°N, 77.65°W
Report Text: KHWY 240015Z AUTO 13004KT 10SM -RA BKN024 OVC033 14/11 A3000 RMK AO2 T01350105
Loading
Personal Weather Stations






























Interactive Weather Map New forecast layout! Learn more

10-Day Weather Forecast

Advertisements
Track Severe Weather on mobile